createdAt,value
2018-03-21T00:01:00.677Z,10.37
2018-03-21T00:03:29.775Z,9.23
2018-03-21T00:05:58.830Z,5.90
2018-03-21T00:08:27.238Z,5.77
2018-03-21T00:10:55.600Z,7.40
2018-03-21T00:13:23.948Z,6.55
2018-03-21T00:15:52.543Z,6.87
2018-03-21T00:18:20.984Z,5.28
2018-03-21T00:20:49.363Z,5.80
2018-03-21T00:23:17.629Z,7.70
2018-03-21T00:25:46.825Z,12.30
2018-03-21T00:28:17.187Z,10.63
2018-03-21T00:30:45.509Z,5.47
2018-03-21T00:33:14.084Z,5.23
2018-03-21T00:35:42.377Z,8.13
2018-03-21T00:38:11.493Z,8.63
2018-03-21T00:40:39.778Z,7.37
2018-03-21T00:43:08.227Z,4.55
2018-03-21T00:45:36.584Z,8.90
2018-03-21T00:48:04.860Z,5.03
2018-03-21T00:50:33.170Z,8.17
2018-03-21T00:53:01.481Z,9.57
2018-03-21T00:55:29.787Z,7.77
2018-03-21T00:57:59.976Z,6.47
2018-03-21T01:00:28.282Z,7.15
2018-03-21T01:02:56.660Z,10.47
2018-03-21T01:05:25.080Z,6.77
2018-03-21T01:07:53.521Z,7.63
2018-03-21T01:10:21.883Z,6.47
2018-03-21T01:12:50.348Z,8.63
2018-03-21T01:15:18.683Z,7.03
2018-03-21T01:17:47.758Z,9.97
2018-03-21T01:20:16.069Z,8.20
2018-03-21T01:22:44.378Z,7.83
2018-03-21T01:25:13.617Z,6.40
2018-03-21T01:27:42.698Z,7.47
2018-03-21T01:30:11.018Z,11.00
2018-03-21T01:32:39.333Z,6.93
2018-03-21T01:35:07.664Z,10.77
2018-03-21T01:37:36.747Z,6.20
2018-03-21T01:40:05.828Z,11.48
2018-03-21T01:42:34.257Z,8.13
2018-03-21T01:45:02.538Z,6.07
2018-03-21T01:47:30.972Z,6.07
2018-03-21T01:50:00.099Z,6.90
2018-03-21T01:52:28.420Z,6.72
2018-03-21T01:54:56.846Z,6.33
2018-03-21T01:57:25.392Z,8.60
2018-03-21T01:59:53.799Z,8.07
2018-03-21T02:02:22.998Z,8.70
2018-03-21T02:04:52.088Z,7.70
2018-03-21T02:07:21.356Z,10.47
2018-03-21T02:09:49.684Z,5.93
2018-03-21T02:12:18.024Z,8.87
2018-03-21T02:14:46.341Z,7.00
2018-03-21T02:17:14.737Z,5.83
2018-03-21T02:19:43.031Z,6.00
2018-03-21T02:22:11.337Z,6.22
2018-03-21T02:24:39.662Z,7.30
2018-03-21T02:27:07.960Z,6.97
2018-03-21T02:29:36.265Z,9.33
2018-03-21T02:32:05.414Z,4.35
2018-03-21T02:34:33.944Z,6.60
2018-03-21T02:37:03.189Z,8.73
2018-03-21T02:39:31.653Z,6.33
2018-03-21T02:42:00.100Z,6.00
2018-03-21T02:44:29.593Z,8.47
2018-03-21T02:46:58.131Z,7.47
2018-03-21T02:49:27.510Z,5.17
2018-03-21T02:51:55.998Z,5.87
2018-03-21T02:54:24.395Z,6.97
2018-03-21T02:56:53.026Z,5.80
2018-03-21T02:59:21.686Z,7.60
2018-03-21T03:01:50.176Z,6.40
2018-03-21T03:04:19.563Z,6.57
2018-03-21T03:06:48.322Z,7.67
2018-03-21T03:09:16.987Z,7.05
2018-03-21T03:11:45.388Z,6.93
2018-03-21T03:14:13.710Z,8.30
2018-03-21T03:16:42.268Z,11.10
2018-03-21T03:19:10.584Z,42.83
2018-03-21T03:21:39.007Z,54.67
2018-03-21T03:24:07.358Z,12.30
2018-03-21T03:26:36.567Z,9.07
2018-03-21T03:29:07.048Z,6.53
2018-03-21T03:31:35.555Z,7.17
2018-03-21T03:34:03.828Z,8.70
2018-03-21T03:36:32.108Z,5.80
2018-03-21T03:39:00.365Z,6.43
2018-03-21T03:41:29.427Z,8.95
2018-03-21T03:43:57.743Z,6.10
2018-03-21T03:46:26.963Z,9.37
2018-03-21T03:48:56.099Z,8.50
2018-03-21T03:51:24.364Z,10.57
2018-03-21T03:53:52.661Z,9.43
2018-03-21T03:56:21.852Z,7.77
2018-03-21T03:58:50.187Z,7.17
2018-03-21T04:01:19.287Z,7.57
2018-03-21T04:03:48.539Z,55.70
2018-03-21T04:06:16.838Z,22.30
2018-03-21T04:08:45.277Z,9.88
2018-03-21T04:11:13.683Z,8.27
2018-03-21T04:13:42.057Z,10.88
2018-03-21T04:16:10.538Z,8.33
2018-03-21T04:18:38.863Z,6.13
2018-03-21T04:21:07.389Z,8.47
2018-03-21T04:23:35.818Z,9.43
2018-03-21T04:26:04.992Z,7.20
2018-03-21T04:28:33.348Z,7.18
2018-03-21T04:31:01.738Z,6.90
2018-03-21T04:33:30.897Z,6.97
2018-03-21T04:35:59.400Z,7.37
2018-03-21T04:38:27.760Z,6.57
2018-03-21T04:40:56.138Z,5.87
2018-03-21T04:43:24.443Z,5.77
2018-03-21T04:45:52.873Z,5.53
2018-03-21T04:48:21.274Z,5.17
2018-03-21T04:50:49.725Z,10.00
2018-03-21T04:53:18.176Z,5.90
2018-03-21T04:55:46.591Z,9.93
2018-03-21T04:58:16.095Z,7.57
2018-03-21T05:00:44.556Z,9.50
2018-03-21T05:03:13.969Z,7.67
2018-03-21T05:05:42.299Z,13.10
2018-03-21T05:08:11.453Z,8.83
2018-03-21T05:10:39.769Z,6.28
2018-03-21T05:13:08.103Z,10.63
2018-03-21T05:15:36.410Z,7.57
2018-03-21T05:18:04.686Z,9.97
2018-03-21T05:20:32.996Z,6.87
2018-03-21T05:23:02.334Z,15.77
2018-03-21T05:25:30.805Z,13.48
2018-03-21T05:27:59.325Z,11.23
2018-03-21T05:30:27.648Z,8.13
2018-03-21T05:32:56.124Z,12.70
2018-03-21T05:35:24.424Z,10.93
2018-03-21T05:37:52.734Z,9.82
2018-03-21T05:40:21.030Z,12.48
2018-03-21T05:42:49.354Z,14.27
2018-03-21T05:45:17.998Z,12.45
2018-03-21T05:47:46.544Z,11.73
2018-03-21T05:50:15.614Z,12.43
2018-03-21T05:52:43.910Z,16.77
2018-03-21T05:55:12.200Z,11.27
2018-03-21T05:57:40.512Z,14.40
2018-03-21T06:00:08.794Z,17.90
2018-03-21T06:02:37.160Z,12.32
2018-03-21T06:05:05.500Z,14.23
2018-03-21T06:07:33.960Z,14.93
2018-03-21T06:10:02.244Z,12.88
2018-03-21T06:12:30.663Z,12.60
2018-03-21T06:14:59.205Z,15.50
2018-03-21T06:17:27.479Z,13.53
2018-03-21T06:19:55.823Z,15.60
2018-03-21T06:22:24.146Z,18.75
2018-03-21T06:24:52.594Z,16.47
2018-03-21T06:27:21.832Z,14.67
2018-03-21T06:29:50.294Z,16.17
2018-03-21T06:32:18.733Z,24.57
2018-03-21T06:34:47.260Z,19.47
2018-03-21T06:37:15.578Z,18.57
2018-03-21T06:39:44.280Z,20.77
2018-03-21T06:42:12.626Z,18.20
2018-03-21T06:44:40.918Z,19.55
2018-03-21T06:47:09.199Z,17.73
2018-03-21T06:49:38.435Z,14.93
2018-03-21T06:52:06.731Z,23.43
2018-03-21T06:54:35.077Z,18.30
2018-03-21T06:57:03.511Z,21.37
2018-03-21T06:59:31.875Z,17.63
2018-03-21T07:02:00.416Z,22.87
2018-03-21T07:04:28.786Z,17.03
2018-03-21T07:06:58.126Z,21.27
2018-03-21T07:09:26.484Z,19.30
2018-03-21T07:11:54.810Z,15.80
2018-03-21T07:14:41.048Z,28.42
2018-03-21T07:17:09.416Z,17.67
2018-03-21T07:19:38.975Z,23.95
2018-03-21T07:22:07.250Z,38.60
2018-03-21T07:24:35.551Z,39.27
2018-03-21T07:27:04.176Z,44.40
2018-03-21T07:29:32.555Z,42.40
2018-03-21T07:32:01.037Z,49.17
2018-03-21T07:34:29.376Z,64.03
2018-03-21T07:36:57.926Z,62.27
2018-03-21T07:39:26.328Z,56.25
2018-03-21T07:41:54.979Z,54.07
2018-03-21T07:44:23.305Z,45.20
2018-03-21T07:46:51.644Z,51.57
2018-03-21T07:49:19.974Z,57.40
2018-03-21T07:51:49.059Z,44.73
2018-03-21T07:54:18.292Z,38.42
2018-03-21T07:56:47.046Z,45.03
2018-03-21T07:59:15.504Z,32.78
2018-03-21T08:01:43.807Z,45.00
2018-03-21T08:04:14.002Z,31.20
2018-03-21T08:06:42.451Z,34.77
2018-03-21T08:09:10.763Z,34.20
2018-03-21T08:11:39.153Z,32.50
2018-03-21T08:14:07.559Z,37.13
2018-03-21T08:16:36.790Z,34.70
2018-03-21T08:19:05.247Z,37.40
2018-03-21T08:21:33.562Z,40.87
2018-03-21T08:24:01.986Z,53.15
2018-03-21T08:26:31.090Z,47.45
2018-03-21T08:28:59.596Z,52.17
2018-03-21T08:31:27.967Z,45.40
2018-03-21T08:33:56.830Z,39.20
2018-03-21T08:36:25.137Z,36.67
2018-03-21T08:38:53.474Z,34.60
2018-03-21T08:41:21.827Z,34.90
2018-03-21T08:43:50.182Z,29.30
2018-03-21T08:46:18.621Z,27.55
2018-03-21T08:48:47.782Z,28.83
2018-03-21T08:51:16.465Z,37.60
2018-03-21T08:53:46.387Z,40.97
2018-03-21T08:56:14.873Z,44.97
2018-03-21T08:58:43.209Z,53.72
2018-03-21T09:01:11.582Z,52.47
2018-03-21T09:03:41.004Z,58.03
2018-03-21T09:06:09.554Z,63.78
2018-03-21T09:08:38.051Z,56.43
2018-03-21T09:11:06.386Z,67.77
2018-03-21T09:13:35.598Z,76.93
2018-03-21T09:16:04.057Z,88.60
2018-03-21T09:18:32.366Z,72.70
2018-03-21T09:21:00.903Z,64.80
2018-03-21T09:23:30.020Z,98.20
2018-03-21T09:25:59.148Z,95.78
2018-03-21T09:28:27.609Z,101.22
2018-03-21T09:30:56.718Z,80.23
2018-03-21T09:33:25.046Z,79.97
2018-03-21T09:35:55.045Z,88.00
2018-03-21T09:38:23.371Z,94.20
2018-03-21T09:40:52.603Z,93.40
2018-03-21T09:43:21.099Z,76.18
2018-03-21T09:45:49.594Z,83.17
2018-03-21T09:48:17.925Z,73.67
2018-03-21T09:50:46.421Z,71.70
2018-03-21T09:53:14.701Z,67.20
2018-03-21T09:55:43.005Z,71.90
2018-03-21T09:58:11.394Z,71.62
2018-03-21T10:00:39.719Z,69.70
2018-03-21T10:03:08.921Z,72.87
2018-03-21T10:05:37.372Z,66.77
2018-03-21T10:08:06.748Z,68.47
2018-03-21T10:10:35.030Z,62.30
2018-03-21T10:13:03.392Z,59.70
2018-03-21T10:15:31.746Z,65.40
2018-03-21T10:18:00.081Z,66.83
2018-03-21T10:20:29.160Z,67.57
2018-03-21T10:22:58.226Z,61.13
2018-03-21T10:25:26.676Z,66.33
2018-03-21T10:27:55.236Z,64.97
2018-03-21T10:30:23.563Z,56.93
2018-03-21T10:32:52.167Z,65.27
2018-03-21T10:35:21.772Z,60.30
2018-03-21T10:37:50.867Z,54.90
2018-03-21T10:40:19.205Z,57.60
2018-03-21T10:42:47.535Z,60.57
2018-03-21T10:45:15.821Z,57.50
2018-03-21T10:47:45.047Z,49.50
2018-03-21T10:50:13.357Z,59.27
2018-03-21T10:52:41.808Z,55.85
2018-03-21T10:55:10.167Z,58.80
2018-03-21T10:57:38.469Z,55.37
2018-03-21T11:00:06.877Z,47.50
2018-03-21T11:02:40.771Z,56.03
2018-03-21T11:05:09.238Z,50.94
2018-03-21T11:07:37.600Z,51.77
2018-03-21T11:10:07.160Z,57.80
2018-03-21T11:12:35.667Z,54.97
2018-03-21T11:15:04.930Z,61.50
2018-03-21T11:17:33.241Z,55.70
2018-03-21T11:20:02.327Z,49.97
2018-03-21T11:22:31.601Z,53.03
2018-03-21T11:24:59.941Z,54.77
2018-03-21T11:27:28.260Z,43.63
2018-03-21T11:29:56.581Z,45.05
2018-03-21T11:32:24.932Z,41.17
2018-03-21T11:34:54.064Z,43.83
2018-03-21T11:37:22.416Z,41.50
2018-03-21T11:39:51.615Z,50.50
2018-03-21T11:42:21.019Z,40.03
2018-03-21T11:44:51.206Z,30.53
2018-03-21T11:47:19.657Z,37.60
2018-03-21T11:49:48.156Z,45.47
2018-03-21T11:52:16.453Z,42.13
2018-03-21T11:54:46.723Z,38.63
2018-03-21T11:57:15.068Z,43.47
2018-03-21T11:59:44.191Z,39.00
2018-03-21T12:02:12.496Z,34.00
2018-03-21T12:04:40.822Z,37.60
2018-03-21T12:07:09.888Z,36.63
2018-03-21T12:09:38.324Z,35.13
2018-03-21T12:12:06.887Z,27.60
2018-03-21T12:14:36.110Z,27.37
2018-03-21T12:17:05.941Z,36.25
2018-03-21T12:19:34.325Z,68.17
2018-03-21T12:22:02.813Z,65.77
2018-03-21T12:24:31.157Z,60.67
2018-03-21T12:26:59.487Z,67.73
2018-03-21T12:29:27.971Z,74.17
2018-03-21T12:31:56.312Z,58.17
2018-03-21T12:34:24.743Z,53.30
2018-03-21T12:36:53.842Z,55.58
2018-03-21T12:39:22.918Z,50.33
2018-03-21T12:41:52.058Z,61.90
2018-03-21T12:44:20.365Z,53.28
2018-03-21T12:46:49.712Z,53.92
2018-03-21T12:49:20.017Z,55.87
2018-03-21T12:51:49.212Z,54.20
2018-03-21T12:54:17.567Z,58.00
2018-03-21T12:56:46.076Z,56.67
2018-03-21T12:59:15.166Z,54.80
2018-03-21T13:01:43.607Z,67.67
2018-03-21T13:04:11.886Z,75.87
2018-03-21T13:06:40.410Z,65.50
2018-03-21T13:09:09.678Z,64.73
2018-03-21T13:11:38.317Z,59.63
2018-03-21T13:14:06.637Z,71.43
2018-03-21T13:16:35.143Z,66.85
2018-03-21T13:19:03.668Z,50.83
2018-03-21T13:21:32.030Z,56.97
2018-03-21T13:24:00.387Z,54.47
2018-03-21T13:26:29.452Z,55.93
2018-03-21T13:28:57.814Z,52.57
2018-03-21T13:31:26.375Z,55.67
2018-03-21T13:33:54.775Z,45.17
2018-03-21T13:36:23.156Z,52.37
2018-03-21T13:38:51.498Z,45.20
2018-03-21T13:41:19.843Z,49.43
2018-03-21T13:43:48.163Z,42.20
2018-03-21T13:46:16.517Z,44.20
2018-03-21T13:48:46.023Z,49.80
2018-03-21T13:51:16.482Z,46.40
2018-03-21T13:53:44.800Z,43.30
2018-03-21T13:56:13.332Z,52.33
2018-03-21T13:58:41.688Z,39.87
2018-03-21T14:01:10.761Z,47.33
2018-03-21T14:03:39.136Z,39.47
2018-03-21T14:06:08.261Z,36.57
2018-03-21T14:08:37.395Z,42.03
2018-03-21T14:11:05.833Z,38.13
2018-03-21T14:13:34.335Z,40.75
2018-03-21T14:16:02.865Z,51.37
2018-03-21T14:18:31.436Z,36.80
2018-03-21T14:20:59.765Z,34.97
2018-03-21T14:23:28.109Z,35.13
2018-03-21T14:25:56.451Z,31.83
2018-03-21T14:28:24.784Z,34.63
2018-03-21T14:30:54.027Z,33.53
2018-03-21T14:33:22.469Z,27.70
2018-03-21T14:35:50.777Z,28.90
2018-03-21T14:38:19.202Z,33.70
2018-03-21T14:40:48.397Z,29.58
2018-03-21T14:43:16.794Z,35.53
2018-03-21T14:45:45.908Z,28.57
2018-03-21T14:48:14.297Z,27.27
2018-03-21T14:50:42.731Z,34.60
2018-03-21T14:53:11.084Z,27.63
2018-03-21T14:55:39.659Z,27.50
2018-03-21T14:58:08.012Z,30.63
2018-03-21T15:00:36.361Z,27.95
2018-03-21T15:03:05.471Z,32.08
2018-03-21T15:05:33.947Z,33.08
2018-03-21T15:08:03.051Z,34.13
2018-03-21T15:10:31.641Z,26.47
2018-03-21T15:12:59.958Z,31.70
2018-03-21T15:15:28.277Z,28.20
2018-03-21T15:17:57.599Z,28.70
2018-03-21T15:20:28.038Z,29.73
2018-03-21T15:22:56.581Z,28.33
2018-03-21T15:25:25.013Z,24.87
2018-03-21T15:27:53.323Z,27.60
2018-03-21T15:30:22.556Z,28.83
2018-03-21T15:32:51.188Z,30.30
2018-03-21T15:35:19.745Z,32.10
2018-03-21T15:37:48.309Z,27.37
2018-03-21T15:40:16.862Z,30.75
2018-03-21T15:42:46.169Z,33.22
2018-03-21T15:45:15.474Z,40.77
2018-03-21T15:47:43.808Z,39.65
2018-03-21T15:50:12.167Z,36.50
2018-03-21T15:52:42.058Z,40.53
2018-03-21T15:55:10.548Z,37.87
2018-03-21T15:57:38.986Z,41.10
2018-03-21T16:00:07.406Z,43.37
2018-03-21T16:02:35.717Z,38.13
2018-03-21T16:05:04.372Z,54.45
2018-03-21T16:07:32.824Z,36.43
2018-03-21T16:10:01.403Z,40.85
2018-03-21T16:12:30.582Z,41.10
2018-03-21T16:14:59.707Z,37.13
2018-03-21T16:17:28.099Z,43.93
2018-03-21T16:19:56.567Z,36.28
2018-03-21T16:22:24.883Z,32.90
2018-03-21T16:24:53.332Z,37.93
2018-03-21T16:27:21.746Z,32.67
2018-03-21T16:29:50.319Z,33.90
2018-03-21T16:32:18.787Z,35.37
2018-03-21T16:34:47.278Z,35.07
2018-03-21T16:37:15.608Z,30.53
2018-03-21T16:39:44.834Z,32.78
2018-03-21T16:42:13.230Z,39.95
2018-03-21T16:44:41.623Z,36.77
2018-03-21T16:47:10.152Z,31.62
2018-03-21T16:49:39.459Z,36.50
2018-03-21T16:52:08.687Z,30.50
2018-03-21T16:54:38.092Z,34.13
2018-03-21T16:57:06.465Z,34.13
2018-03-21T16:59:34.814Z,29.83
2018-03-21T17:02:03.930Z,35.25
2018-03-21T17:04:32.308Z,31.73
2018-03-21T17:07:00.914Z,38.37
2018-03-21T17:09:29.403Z,30.33
2018-03-21T17:11:57.892Z,33.83
2018-03-21T17:14:26.215Z,30.10
2018-03-21T17:16:55.409Z,31.70
2018-03-21T17:19:24.634Z,33.67
2018-03-21T17:21:53.102Z,32.33
2018-03-21T17:24:21.695Z,32.77
2018-03-21T17:26:50.082Z,25.87
2018-03-21T17:29:18.557Z,28.67
2018-03-21T17:31:47.744Z,35.00
2018-03-21T17:34:16.103Z,31.13
2018-03-21T17:36:45.242Z,28.53
2018-03-21T17:39:13.560Z,29.20
2018-03-21T17:41:42.212Z,32.95
2018-03-21T17:44:10.604Z,31.70
2018-03-21T17:46:39.120Z,29.65
2018-03-21T17:49:07.564Z,32.17
2018-03-21T17:51:36.156Z,31.33
2018-03-21T17:54:05.942Z,37.83
2018-03-21T17:56:34.392Z,33.63
2018-03-21T17:59:02.792Z,39.57
2018-03-21T18:01:31.183Z,33.53
2018-03-21T18:03:59.692Z,32.87
2018-03-21T18:06:28.130Z,27.17
2018-03-21T18:08:56.661Z,43.47
2018-03-21T18:11:25.046Z,34.23
2018-03-21T18:13:54.586Z,27.17
2018-03-21T18:16:22.969Z,29.27
2018-03-21T18:18:51.394Z,28.50
2018-03-21T18:21:20.658Z,30.13
2018-03-21T18:23:50.454Z,31.75
2018-03-21T18:26:18.793Z,25.20
2018-03-21T18:28:47.164Z,26.10
2018-03-21T18:31:16.132Z,30.87
2018-03-21T18:33:44.583Z,27.27
2018-03-21T18:36:13.674Z,24.67
2018-03-21T18:38:42.054Z,25.17
2018-03-21T18:41:10.655Z,29.60
2018-03-21T18:43:39.255Z,27.70
2018-03-21T18:46:07.924Z,27.43
2018-03-21T18:48:36.409Z,25.73
2018-03-21T18:51:04.818Z,24.30
2018-03-21T18:53:33.272Z,30.40
2018-03-21T18:56:01.675Z,25.57
2018-03-21T18:58:30.025Z,21.93
2018-03-21T19:00:58.562Z,22.80
2018-03-21T19:03:27.705Z,25.57
2018-03-21T19:05:56.041Z,20.53
2018-03-21T19:08:25.246Z,26.47
2018-03-21T19:10:53.657Z,27.10
2018-03-21T19:13:22.300Z,24.47
2018-03-21T19:15:51.495Z,20.20
2018-03-21T19:18:20.777Z,27.08
2018-03-21T19:20:49.140Z,23.10
2018-03-21T19:23:18.454Z,23.40
2018-03-21T19:25:46.810Z,22.97
2018-03-21T19:28:15.703Z,21.87
2018-03-21T19:30:44.173Z,20.93
2018-03-21T19:33:12.994Z,24.90
2018-03-21T19:35:41.567Z,24.40
2018-03-21T19:38:09.993Z,21.47
2018-03-21T19:40:38.692Z,22.20
2018-03-21T19:43:07.087Z,19.70
2018-03-21T19:45:35.550Z,16.00
2018-03-21T19:48:04.492Z,22.73
2018-03-21T19:50:33.123Z,23.63
2018-03-21T19:53:01.626Z,20.07
2018-03-21T19:55:30.209Z,25.43
2018-03-21T19:57:58.868Z,16.03
2018-03-21T20:00:27.292Z,27.83
2018-03-21T20:02:56.550Z,23.63
2018-03-21T20:05:25.881Z,23.47
2018-03-21T20:07:54.339Z,21.65
2018-03-21T20:10:22.728Z,23.48
2018-03-21T20:12:51.196Z,24.80
2018-03-21T20:15:19.693Z,25.20
2018-03-21T20:17:48.210Z,22.17
2018-03-21T20:20:16.668Z,26.63
2018-03-21T20:22:45.150Z,23.33
2018-03-21T20:25:14.794Z,20.77
2018-03-21T20:27:44.076Z,20.97
2018-03-21T20:30:13.403Z,22.67
2018-03-21T20:32:41.757Z,18.17
2018-03-21T20:35:10.255Z,19.50
2018-03-21T20:37:39.335Z,19.97
2018-03-21T20:40:07.748Z,20.17
2018-03-21T20:42:36.235Z,19.40
2018-03-21T20:45:04.928Z,20.98
2018-03-21T20:47:33.411Z,21.67
2018-03-21T20:50:01.880Z,26.35
2018-03-21T20:52:30.255Z,21.03
2018-03-21T20:54:58.852Z,23.20
2018-03-21T20:57:27.230Z,20.27
2018-03-21T20:59:55.796Z,18.23
2018-03-21T21:02:24.616Z,22.35
2018-03-21T21:04:53.280Z,17.10
2018-03-21T21:07:21.686Z,25.85
2018-03-21T21:09:50.203Z,23.97
2018-03-21T21:12:18.585Z,18.58
2018-03-21T21:14:47.711Z,26.53
2018-03-21T21:17:16.317Z,18.17
2018-03-21T21:19:45.041Z,25.13
2018-03-21T21:22:14.445Z,22.43
2018-03-21T21:24:42.812Z,24.57
2018-03-21T21:27:11.183Z,24.70
2018-03-21T21:29:39.592Z,22.58
2018-03-21T21:32:08.942Z,27.77
2018-03-21T21:34:37.370Z,24.30
2018-03-21T21:37:06.631Z,16.65
2018-03-21T21:39:35.079Z,23.97
2018-03-21T21:42:03.392Z,22.67
2018-03-21T21:44:31.899Z,23.25
2018-03-21T21:47:00.278Z,20.20
2018-03-21T21:49:29.484Z,32.85
2018-03-21T21:51:58.679Z,29.13
2018-03-21T21:54:27.719Z,21.87
2018-03-21T21:56:56.237Z,30.23
2018-03-21T21:59:24.761Z,24.45
2018-03-21T22:01:53.148Z,24.83
2018-03-21T22:04:21.413Z,26.53
2018-03-21T22:06:49.738Z,23.27
2018-03-21T22:09:18.163Z,30.10
2018-03-21T22:11:47.331Z,23.48
2018-03-21T22:14:17.217Z,21.87
2018-03-21T22:16:45.584Z,24.77
2018-03-21T22:19:13.918Z,27.55
2018-03-21T22:21:42.987Z,23.90
2018-03-21T22:24:11.321Z,22.40
2018-03-21T22:26:39.614Z,29.75
2018-03-21T22:29:09.678Z,20.75
2018-03-21T22:31:38.900Z,29.73
2018-03-21T22:34:07.344Z,27.57
2018-03-21T22:36:35.855Z,25.13
2018-03-21T22:39:04.975Z,28.60
2018-03-21T22:41:33.253Z,27.87
2018-03-21T22:44:01.622Z,30.37
2018-03-21T22:46:29.969Z,24.53
2018-03-21T22:48:59.383Z,26.53
2018-03-21T22:51:28.500Z,23.73
2018-03-21T22:53:56.884Z,24.05
2018-03-21T22:56:25.419Z,21.97
2018-03-21T22:58:54.548Z,22.30
2018-03-21T23:01:22.889Z,28.47
2018-03-21T23:03:51.191Z,28.73
2018-03-21T23:06:19.610Z,25.48
2018-03-21T23:08:48.200Z,26.63
2018-03-21T23:11:16.537Z,29.83
2018-03-21T23:13:44.869Z,27.07
2018-03-21T23:16:13.144Z,19.93
2018-03-21T23:18:41.439Z,25.50
2018-03-21T23:21:10.533Z,23.55
2018-03-21T23:23:38.845Z,19.83
2018-03-21T23:26:07.199Z,21.13
2018-03-21T23:28:36.265Z,20.67
2018-03-21T23:31:06.039Z,22.50
2018-03-21T23:33:34.381Z,21.40
2018-03-21T23:36:03.414Z,29.37
2018-03-21T23:38:31.715Z,21.33
2018-03-21T23:41:00.406Z,25.60
2018-03-21T23:43:28.753Z,25.40
2018-03-21T23:45:57.055Z,23.87
2018-03-21T23:48:25.370Z,22.70
2018-03-21T23:50:54.601Z,24.67
2018-03-21T23:53:22.916Z,24.05
2018-03-21T23:55:51.221Z,29.97
2018-03-21T23:58:20.295Z,27.83
